Time;durP1;ratioP1;P1;durP2;ratioP2;P2;SDS_P1;SDS_P2;PMS_P1;PMS_P2;Temp;Humidity;BMP_temperature;BMP_pressure;BME280_temperature;BME280_humidity;BME280_pressure;Samples;Min_cycle;Max_cycle;Signal;HPM_P1;HPM_P2
2022/01/01 00:00:12;;;;;;;34.05;25.00;;;;;;;8.71;59.04;101445.22;1764092;80;21027;-55
2022/01/01 00:02:42;;;;;;;46.13;30.92;;;;;;;8.71;59.11;101439.60;1759589;80;21006;-54
2022/01/01 00:05:12;;;;;;;43.40;29.25;;;;;;;8.70;59.08;101439.58;1767465;80;21028;-54
2022/01/01 00:07:39;;;;;;;53.20;33.10;;;;;;;8.67;59.19;101436.59;1755257;80;21048;-55
2022/01/01 00:10:10;;;;;;;49.70;33.10;;;;;;;8.64;59.17;101445.66;1760926;80;21108;-54
2022/01/01 00:12:36;;;;;;;47.67;31.62;;;;;;;8.62;59.21;101434.85;1773615;80;20967;-54
2022/01/01 00:15:04;;;;;;;61.83;37.65;;;;;;;8.61;59.20;101437.04;1762323;80;21063;-54
2022/01/01 00:17:32;;;;;;;53.87;33.48;;;;;;;8.59;59.33;101433.58;1759778;80;21039;-54
2022/01/01 00:19:59;;;;;;;59.23;36.13;;;;;;;8.58;59.45;101442.22;1762347;80;21043;-54
2022/01/01 00:22:26;;;;;;;63.50;38.65;;;;;;;8.57;59.47;101440.51;1763050;80;21510;-54
2022/01/01 00:24:52;;;;;;;57.43;35.43;;;;;;;8.58;59.39;101437.03;1755851;80;21490;-54
2022/01/01 00:27:18;;;;;;;49.30;31.93;;;;;;;8.57;59.53;101436.62;1750619;80;21466;-55
2022/01/01 00:29:45;;;;;;;38.92;27.90;;;;;;;8.57;59.52;101439.21;1747871;81;21486;-54
2022/01/01 00:32:11;;;;;;;31.07;24.40;;;;;;;8.57;59.51;101446.99;1755996;80;21525;-54
2022/01/01 00:34:38;;;;;;;32.13;23.73;;;;;;;8.57;59.61;101443.10;1758236;80;20987;-54
2022/01/01 00:37:05;;;;;;;33.55;24.85;;;;;;;8.58;59.65;101442.22;1760380;80;20988;-54
2022/01/01 00:39:32;;;;;;;29.87;24.18;;;;;;;8.58;59.74;101434.44;1749725;80;21511;-54
2022/01/01 00:41:59;;;;;;;28.77;22.65;;;;;;;8.61;59.77;101432.72;1773803;80;21018;-54
2022/01/01 00:44:29;;;;;;;31.33;24.95;;;;;;;8.64;59.72;101430.52;1768247;80;21023;-54
2022/01/01 00:46:55;;;;;;;30.05;24.02;;;;;;;8.64;59.74;101427.50;1755602;80;21067;-54
2022/01/01 00:49:22;;;;;;;30.80;23.07;;;;;;;8.67;59.73;101417.56;1751696;80;21582;-54
2022/01/01 00:51:48;;;;;;;30.32;24.60;;;;;;;8.70;59.81;101408.45;1756475;80;21499;-54
2022/01/01 00:54:16;;;;;;;33.63;24.65;;;;;;;8.71;59.89;101405.88;1758950;80;21016;-54
2022/01/01 00:56:44;;;;;;;29.70;24.23;;;;;;;8.75;59.93;101401.52;1749552;80;21077;-55
2022/01/01 00:59:11;;;;;;;31.70;24.95;;;;;;;8.77;59.77;101404.98;1771153;80;21497;-55
2022/01/01 01:01:38;;;;;;;33.50;24.23;;;;;;;8.79;59.76;101398.05;1751292;81;21489;-54
2022/01/01 01:04:05;;;;;;;29.85;24.05;;;;;;;8.79;59.68;101395.45;1765680;80;21037;-54
2022/01/01 01:06:32;;;;;;;29.60;23.02;;;;;;;8.80;59.74;101392.84;1763016;80;21024;-54
2022/01/01 01:09:00;;;;;;;30.68;23.87;;;;;;;8.82;59.61;101387.67;1755789;80;21018;-55
2022/01/01 01:11:27;;;;;;;28.62;23.60;;;;;;;8.83;59.66;101391.97;1767620;80;21061;-54
2022/01/01 01:14:07;;;;;;;30.00;23.90;;;;;;;8.85;59.69;101385.05;1755767;80;21066;-54
2022/01/01 01:16:28;;;;;;;29.32;23.20;;;;;;;8.85;59.77;101378.12;1754369;80;21021;-54
2022/01/01 01:18:57;;;;;;;30.60;23.62;;;;;;;8.87;59.76;101378.11;1763928;80;21041;-54
2022/01/01 01:21:24;;;;;;;28.75;23.67;;;;;;;8.86;59.70;101372.51;1754218;80;21164;-55
2022/01/01 01:23:53;;;;;;;30.35;24.87;;;;;;;8.85;59.75;101373.36;1760990;80;21058;-54
2022/01/01 01:26:20;;;;;;;31.12;23.73;;;;;;;8.86;59.78;101374.64;1751288;80;21057;-54
2022/01/01 01:28:48;;;;;;;29.42;23.27;;;;;;;8.88;59.88;101372.06;1760232;80;21037;-55
2022/01/01 01:31:16;;;;;;;29.42;23.60;;;;;;;8.90;59.88;101375.52;1756887;81;21044;-54
2022/01/01 01:33:44;;;;;;;29.05;24.45;;;;;;;8.92;59.83;101387.59;1774389;80;21030;-54
2022/01/01 01:36:12;;;;;;;29.15;23.52;;;;;;;8.93;59.82;101379.37;1760468;80;21017;-54
2022/01/01 01:38:40;;;;;;;30.65;23.70;;;;;;;8.94;59.80;101379.82;1756641;80;21023;-54
2022/01/01 01:41:08;;;;;;;27.15;22.30;;;;;;;8.95;59.74;101375.91;1763059;80;21018;-55
2022/01/01 01:43:34;;;;;;;29.82;23.32;;;;;;;8.96;59.79;101379.37;1760118;80;21033;-55
2022/01/01 01:46:06;;;;;;;29.92;22.80;;;;;;;8.97;59.89;101380.66;1755014;80;21074;-55
2022/01/01 01:48:34;;;;;;;31.73;24.57;;;;;;;8.97;59.89;101379.78;1754256;80;21019;-54
2022/01/01 01:51:01;;;;;;;29.20;23.60;;;;;;;8.98;59.98;101388.02;1755286;80;21054;-55
2022/01/01 01:53:27;;;;;;;29.12;23.57;;;;;;;8.98;60.00;101389.31;1761310;80;21027;-55
2022/01/01 01:55:55;;;;;;;30.35;24.43;;;;;;;8.99;60.05;101370.26;1764005;80;21066;-56
2022/01/01 01:58:22;;;;;;;30.62;24.30;;;;;;;8.99;60.12;101365.06;1750338;80;21006;-55
2022/01/01 02:03:35;;;;;;;30.55;25.30;;;;;;;8.99;60.22;101354.69;1764968;80;21018;-55
2022/01/01 02:06:01;;;;;;;33.13;24.95;;;;;;;8.97;60.23;101340.85;1760489;80;21554;-54
2022/01/01 02:08:28;;;;;;;31.60;24.37;;;;;;;8.96;60.21;101341.28;1757427;80;21076;-54
2022/01/01 02:10:55;;;;;;;31.70;24.72;;;;;;;8.97;60.30;101339.55;1766996;80;21010;-54
2022/01/01 02:16:36;;;;;;;30.02;23.32;;;;;;;8.96;60.39;101338.69;1773814;80;21065;-55
2022/01/01 02:18:53;;;;;;;28.35;23.47;;;;;;;8.96;60.38;101328.77;1709516;82;21057;-55
2022/01/01 02:21:20;;;;;;;30.50;24.12;;;;;;;8.98;60.35;101333.51;1727360;81;21037;-54
2022/01/01 02:23:48;;;;;;;29.75;23.10;;;;;;;8.96;60.27;101311.89;1697619;84;21079;-54
2022/01/01 02:26:16;;;;;;;28.30;22.87;;;;;;;8.95;60.39;101302.37;1740805;82;21081;-54
2022/01/01 02:28:47;;;;;;;29.57;23.18;;;;;;;8.95;60.53;101298.05;1695345;83;21058;-55
2022/01/01 02:31:15;;;;;;;29.00;23.22;;;;;;;8.97;60.48;101298.89;1667681;84;21038;-55
2022/01/01 02:33:43;;;;;;;29.45;22.85;;;;;;;8.97;60.49;101298.89;1666545;85;21510;-54
2022/01/01 02:36:10;;;;;;;28.60;23.55;;;;;;;8.99;60.51;101289.36;1668357;84;21527;-55
2022/01/01 02:38:37;;;;;;;28.35;22.37;;;;;;;9.00;60.56;101283.74;1664964;84;21086;-56
2022/01/01 02:41:04;;;;;;;30.30;22.98;;;;;;;9.03;60.63;101282.87;1670621;85;21051;-55
2022/01/01 02:43:34;;;;;;;27.20;21.93;;;;;;;9.05;60.62;101281.95;1731712;82;21529;-54
2022/01/01 02:46:01;;;;;;;25.68;21.40;;;;;;;9.07;60.53;101284.57;1743084;82;21034;-54
2022/01/01 02:48:27;;;;;;;27.42;22.25;;;;;;;9.03;60.24;101286.30;1747834;81;21042;-55
2022/01/01 02:50:54;;;;;;;31.55;22.60;;;;;;;8.92;60.13;101289.42;1725804;81;21002;-55
2022/01/01 02:53:20;;;;;;;28.95;22.82;;;;;;;8.82;60.27;101280.81;1729266;81;21047;-54
2022/01/01 02:55:47;;;;;;;28.83;22.07;;;;;;;8.78;60.28;101276.95;1702279;83;21062;-54
2022/01/01 02:58:14;;;;;;;29.07;22.98;;;;;;;8.78;60.39;101275.65;1696539;84;21058;-56
2022/01/01 03:00:40;;;;;;;29.75;23.27;;;;;;;8.81;60.46;101270.45;1682806;85;21610;-54
2022/01/01 03:03:07;;;;;;;28.35;21.62;;;;;;;8.84;60.43;101279.53;1684412;84;21595;-54
2022/01/01 03:05:35;;;;;;;29.18;22.58;;;;;;;8.87;60.40;101282.09;1684998;83;21057;-55
2022/01/01 03:08:04;;;;;;;28.32;23.10;;;;;;;8.90;60.42;101284.22;1742377;81;21529;-54
2022/01/01 03:10:31;;;;;;;27.67;22.35;;;;;;;8.77;60.66;101266.16;1732390;81;21015;-54
2022/01/01 03:12:57;;;;;;;26.57;21.48;;;;;;;8.72;60.98;101273.09;1698897;83;21085;-54
2022/01/01 03:15:25;;;;;;;27.00;22.00;;;;;;;8.71;61.03;101269.66;1675342;84;21098;-55
2022/01/01 03:17:52;;;;;;;27.75;21.33;;;;;;;8.72;60.98;101273.09;1696975;83;21018;-55
2022/01/01 03:20:19;;;;;;;25.52;20.92;;;;;;;8.71;60.91;101276.15;1712961;82;21039;-55
2022/01/01 03:22:47;;;;;;;27.00;21.80;;;;;;;8.67;61.07;101273.58;1705780;83;21530;-54
2022/01/01 03:25:14;;;;;;;26.57;21.25;;;;;;;8.66;61.20;101273.13;1699683;83;21535;-55
2022/01/01 03:27:40;;;;;;;27.67;22.42;;;;;;;8.66;61.07;101275.73;1687738;84;21589;-54
2022/01/01 03:30:07;;;;;;;26.97;22.30;;;;;;;8.65;61.06;101276.61;1696208;83;21026;-54
2022/01/01 03:32:34;;;;;;;27.15;21.42;;;;;;;8.63;61.05;101277.05;1724107;82;21010;-55
2022/01/01 03:35:01;;;;;;;25.37;20.80;;;;;;;8.61;61.01;101273.61;1716038;82;21542;-54
2022/01/01 03:37:28;;;;;;;28.23;21.12;;;;;;;8.55;60.99;101277.08;1720909;82;21507;-55
2022/01/01 03:39:55;;;;;;;25.75;20.50;;;;;;;8.50;61.12;101280.57;1697000;83;21550;-56
2022/01/01 03:42:21;;;;;;;26.93;21.57;;;;;;;8.56;61.03;101280.11;1688348;84;21553;-55
2022/01/01 03:44:47;;;;;;;27.20;20.85;;;;;;;8.58;61.05;101283.98;1692347;83;21022;-55
2022/01/01 03:47:14;;;;;;;28.30;21.15;;;;;;;8.59;61.03;101282.70;1690252;83;20998;-54
2022/01/01 03:49:41;;;;;;;26.70;21.35;;;;;;;8.62;60.96;101288.29;1689075;84;21086;-54
2022/01/01 03:52:07;;;;;;;25.55;20.35;;;;;;;8.65;61.05;101283.09;1756868;80;21003;-55
2022/01/01 03:54:35;;;;;;;24.67;19.90;;;;;;;8.65;61.09;101279.20;1756871;80;21171;-54
2022/01/01 03:57:01;;;;;;;25.92;21.12;;;;;;;8.64;60.91;101283.95;1748339;81;20954;-54
2022/01/01 03:59:28;;;;;;;24.70;20.65;;;;;;;8.59;60.86;101279.24;1753735;80;21038;-55
2022/01/01 04:01:55;;;;;;;23.20;20.00;;;;;;;8.54;60.80;101277.09;1758024;80;21074;-55
2022/01/01 04:04:24;;;;;;;23.65;19.15;;;;;;;8.55;60.94;101278.83;1755789;80;21053;-54
2022/01/01 04:06:50;;;;;;;23.25;18.52;;;;;;;8.55;61.02;101278.83;1751140;80;21011;-54
2022/01/01 04:09:17;;;;;;;23.42;18.32;;;;;;;8.59;61.03;101280.54;1750418;80;21554;-54
2022/01/01 04:11:44;;;;;;;22.10;18.37;;;;;;;8.63;61.06;101289.60;1752978;80;21494;-54
2022/01/01 04:14:13;;;;;;;26.60;17.25;;;;;;;8.68;61.14;101284.36;1757356;80;21464;-54
2022/01/01 04:16:40;;;;;;;21.17;17.35;;;;;;;8.89;60.61;101281.22;1764108;80;21061;-54
2022/01/01 04:19:08;;;;;;;21.37;17.25;;;;;;;8.91;60.64;101288.98;1762466;80;21506;-54
2022/01/01 04:21:35;;;;;;;20.57;16.97;;;;;;;8.94;60.62;101283.33;1765127;80;21494;-54
2022/01/01 04:24:02;;;;;;;20.65;17.20;;;;;;;8.98;60.49;101281.14;1767605;80;21466;-55
2022/01/01 04:26:29;;;;;;;20.97;17.42;;;;;;;9.01;60.44;101277.23;1771747;80;21086;-54
2022/01/01 04:28:55;;;;;;;17.60;15.72;;;;;;;9.05;60.41;101276.77;1758427;80;21007;-55
2022/01/01 04:31:22;;;;;;;19.77;16.12;;;;;;;9.08;60.33;101276.77;1751302;80;21008;-54
2022/01/01 04:33:48;;;;;;;20.52;16.93;;;;;;;9.11;60.22;101275.88;1747723;81;21046;-55
2022/01/01 04:36:16;;;;;;;19.32;15.85;;;;;;;9.13;60.18;101268.48;1748125;80;21054;-54
2022/01/01 04:38:44;;;;;;;19.12;16.65;;;;;;;9.17;60.10;101265.45;1756247;81;21007;-54
2022/01/01 04:41:13;;;;;;;21.20;16.32;;;;;;;9.18;60.08;101266.73;1757595;80;21035;-54
2022/01/01 04:43:41;;;;;;;20.23;16.42;;;;;;;9.18;60.05;101268.02;1755664;81;21019;-55
2022/01/01 04:46:07;;;;;;;20.12;16.30;;;;;;;9.21;60.02;101266.69;1759468;80;21546;-54
2022/01/01 04:48:37;;;;;;;19.85;15.55;;;;;;;9.23;59.97;101261.08;1755554;81;21002;-54
2022/01/01 04:51:06;;;;;;;21.02;16.35;;;;;;;9.24;59.92;101262.78;1756053;81;21537;-55
2022/01/01 04:53:35;;;;;;;17.05;14.87;;;;;;;9.26;59.83;101261.03;1763428;80;21546;-55
2022/01/01 04:56:06;;;;;;;19.15;15.55;;;;;;;9.28;59.82;101254.09;1760573;80;20995;-54
2022/01/01 04:58:31;;;;;;;19.50;16.02;;;;;;;9.29;59.74;101257.13;1760571;80;21053;-54
2022/01/01 05:00:57;;;;;;;18.90;15.80;;;;;;;9.30;59.68;101260.13;1754887;80;21545;-54
2022/01/01 05:03:24;;;;;;;17.10;14.13;;;;;;;9.30;59.67;101264.03;1767303;80;21499;-54
2022/01/01 05:05:50;;;;;;;17.10;14.53;;;;;;;9.32;59.70;101276.56;1751998;80;21028;-54
2022/01/01 05:08:17;;;;;;;17.62;14.45;;;;;;;9.33;59.68;101267.91;1745593;80;21023;-54
2022/01/01 05:10:45;;;;;;;15.15;12.70;;;;;;;9.34;59.69;101278.70;1757347;80;21026;-54
2022/01/01 05:13:13;;;;;;;16.02;13.15;;;;;;;9.35;59.65;101272.66;1764253;80;21010;-55
2022/01/01 05:15:40;;;;;;;17.73;13.70;;;;;;;9.36;59.69;101275.66;1764656;80;21168;-54
2022/01/01 05:18:06;;;;;;;15.30;12.33;;;;;;;9.39;59.55;101269.16;1751668;80;20995;-54
2022/01/01 05:20:33;;;;;;;16.25;13.03;;;;;;;9.41;59.57;101273.03;1752608;80;21455;-54
2022/01/01 05:23:00;;;;;;;16.15;12.70;;;;;;;9.42;59.49;101270.41;1745418;80;21049;-54
2022/01/01 05:25:28;;;;;;;16.07;13.05;;;;;;;9.43;59.49;101268.69;1757690;80;21026;-54
2022/01/01 05:27:56;;;;;;;17.65;13.75;;;;;;;9.43;59.49;101266.95;1757112;80;21066;-54
2022/01/01 05:30:23;;;;;;;13.50;11.97;;;;;;;9.45;59.46;101257.41;1751833;80;21021;-54
2022/01/01 05:32:49;;;;;;;16.27;13.53;;;;;;;9.46;59.49;101253.92;1761023;80;21004;-54
2022/01/01 05:35:15;;;;;;;14.93;12.75;;;;;;;9.46;59.40;101253.92;1752496;80;21026;-54
2022/01/01 05:37:44;;;;;;;15.78;13.40;;;;;;;9.46;59.38;101250.02;1762600;80;21554;-54
2022/01/01 05:40:12;;;;;;;16.05;12.82;;;;;;;9.46;59.40;101251.33;1761187;80;21003;-54
2022/01/01 05:42:40;;;;;;;14.03;11.85;;;;;;;9.48;59.30;101244.38;1751813;80;21022;-54
2022/01/01 05:45:08;;;;;;;14.73;12.80;;;;;;;9.50;59.25;101247.82;1757780;81;20990;-54
2022/01/01 05:47:35;;;;;;;15.40;12.98;;;;;;;9.50;59.21;101242.63;1755676;80;21026;-54
2022/01/01 05:50:01;;;;;;;16.57;12.98;;;;;;;9.50;59.16;101250.41;1763033;80;20980;-54
2022/01/01 05:52:28;;;;;;;15.20;11.78;;;;;;;9.50;59.09;101245.22;1756740;81;21028;-54
2022/01/01 05:54:55;;;;;;;14.05;11.33;;;;;;;9.50;59.08;101249.12;1756521;80;21117;-54
2022/01/01 05:57:21;;;;;;;15.58;12.37;;;;;;;9.51;59.03;101245.66;1761646;81;21050;-54
2022/01/01 05:59:48;;;;;;;13.55;11.20;;;;;;;9.51;59.04;101248.26;1748281;80;21057;-54
2022/01/01 06:02:14;;;;;;;14.70;11.38;;;;;;;9.50;59.06;101250.41;1752932;80;20997;-54
2022/01/01 06:04:41;;;;;;;14.80;12.18;;;;;;;9.49;59.06;101246.55;1749629;80;21049;-54
2022/01/01 06:07:07;;;;;;;13.20;11.55;;;;;;;9.48;59.05;101244.38;1759911;80;21025;-54
2022/01/01 06:09:35;;;;;;;13.72;11.60;;;;;;;9.48;59.09;101243.54;1756833;80;20998;-54
2022/01/01 06:12:02;;;;;;;13.95;11.83;;;;;;;9.48;59.07;101245.67;1756147;80;21112;-54
2022/01/01 06:14:29;;;;;;;12.30;11.00;;;;;;;9.47;59.09;101240.07;1757501;80;21116;-55
2022/01/01 06:16:55;;;;;;;15.38;11.43;;;;;;;9.46;59.11;101230.54;1758806;80;21122;-54
2022/01/01 06:19:22;;;;;;;14.25;12.05;;;;;;;9.45;59.15;101230.56;1759814;80;21466;-53
2022/01/01 06:21:49;;;;;;;14.20;10.95;;;;;;;9.44;59.14;101237.48;1752520;81;21425;-54
2022/01/01 06:24:15;;;;;;;12.95;10.98;;;;;;;9.44;59.25;101240.52;1765022;80;21634;-54
2022/01/01 06:26:42;;;;;;;13.20;11.10;;;;;;;9.41;59.26;101237.53;1754281;80;21494;-54
2022/01/01 06:29:08;;;;;;;11.48;9.78;;;;;;;9.41;59.40;101245.75;1750649;80;21494;-53
2022/01/01 06:31:35;;;;;;;12.13;10.28;;;;;;;9.40;59.56;101247.91;1757989;80;21558;-54
2022/01/01 06:34:02;;;;;;;12.65;10.45;;;;;;;9.41;59.66;101251.82;1762406;81;21047;-54
2022/01/01 06:36:28;;;;;;;13.98;10.88;;;;;;;9.42;59.73;101253.95;1743817;81;21142;-54
2022/01/01 06:38:55;;;;;;;11.40;10.00;;;;;;;9.43;59.76;101255.27;1765703;80;21035;-54
2022/01/01 06:41:24;;;;;;;13.32;10.90;;;;;;;9.45;59.79;101257.41;1752308;80;21072;-54
2022/01/01 06:43:50;;;;;;;12.23;10.32;;;;;;;9.47;59.83;101264.75;1759024;80;21030;-54
2022/01/01 06:46:17;;;;;;;13.50;10.55;;;;;;;9.51;59.77;101269.04;1769057;80;21073;-54
2022/01/01 06:48:43;;;;;;;12.40;10.43;;;;;;;9.52;59.70;101264.25;1769258;80;20988;-54
2022/01/01 06:51:10;;;;;;;13.60;11.30;;;;;;;9.53;59.84;101272.48;1760706;80;21051;-54
2022/01/01 06:53:36;;;;;;;13.35;9.55;;;;;;;9.54;59.85;101278.09;1760759;80;21565;-54
2022/01/01 06:56:06;;;;;;;12.85;10.03;;;;;;;9.57;59.95;101272.88;1762711;80;21014;-53
2022/01/01 06:58:34;;;;;;;14.50;11.33;;;;;;;9.59;59.94;101276.32;1759921;80;21493;-54
2022/01/01 07:01:00;;;;;;;12.88;10.68;;;;;;;9.61;60.05;101279.77;1750950;81;21015;-54
2022/01/01 07:03:27;;;;;;;12.78;10.38;;;;;;;9.64;60.05;101283.61;1751608;80;21079;-54
2022/01/01 07:05:55;;;;;;;11.53;9.55;;;;;;;9.67;60.10;101279.70;1755820;80;21566;-54
2022/01/01 07:08:22;;;;;;;12.30;9.73;;;;;;;9.71;60.00;101281.40;1737743;80;21023;-54
2022/01/01 07:10:50;;;;;;;12.60;9.80;;;;;;;9.74;59.98;101293.08;1769333;80;21054;-53
2022/01/01 07:13:17;;;;;;;10.88;8.98;;;;;;;9.77;59.96;101286.53;1770807;80;21039;-54
2022/01/01 07:15:44;;;;;;;12.47;9.75;;;;;;;9.80;59.94;101293.02;1766240;80;21114;-54
2022/01/01 07:18:11;;;;;;;13.25;9.88;;;;;;;9.82;59.94;101282.16;1755341;80;21121;-54
2022/01/01 07:20:37;;;;;;;11.73;9.48;;;;;;;9.84;59.87;101296.00;1759437;81;21516;-54
2022/01/01 07:23:04;;;;;;;12.40;10.13;;;;;;;9.87;59.89;101294.25;1746852;81;21518;-54
2022/01/01 07:25:31;;;;;;;12.10;8.88;;;;;;;9.89;59.93;101293.80;1764192;80;21530;-54
2022/01/01 07:27:57;;;;;;;9.48;8.45;;;;;;;9.92;59.82;101292.45;1761967;80;21045;-54
2022/01/01 07:30:23;;;;;;;11.00;9.18;;;;;;;9.94;59.90;101288.09;1759375;80;21002;-54
2022/01/01 07:32:50;;;;;;;12.35;9.68;;;;;;;9.96;59.87;101288.94;1750505;80;21014;-54
2022/01/01 07:35:18;;;;;;;12.37;9.93;;;;;;;9.96;59.90;101293.70;1758990;80;21491;-54
2022/01/01 07:37:45;;;;;;;12.10;9.53;;;;;;;9.97;59.90;101288.07;1748072;80;20978;-54
2022/01/01 07:40:14;;;;;;;12.07;10.03;;;;;;;9.96;59.91;101286.33;1756917;80;21561;-54
2022/01/01 07:42:41;;;;;;;10.38;9.28;;;;;;;9.95;59.98;101287.23;1767265;80;21612;-54
2022/01/01 07:45:08;;;;;;;11.25;9.68;;;;;;;9.96;60.11;101289.80;1750060;80;21498;-53
2022/01/01 07:47:35;;;;;;;12.13;9.40;;;;;;;9.97;60.15;101293.27;1778347;80;21022;-54
2022/01/01 07:50:04;;;;;;;13.22;9.33;;;;;;;9.99;60.13;101303.22;1761554;80;21379;-54
2022/01/01 07:52:31;;;;;;;9.33;8.33;;;;;;;10.02;60.10;101301.86;1770084;80;20996;-54
2022/01/01 07:54:57;;;;;;;12.45;9.28;;;;;;;10.01;60.15;101305.36;1752064;80;21078;-54
2022/01/01 07:57:25;;;;;;;13.03;9.98;;;;;;;10.03;60.21;101303.60;1756803;80;21522;-54
2022/01/01 07:59:51;;;;;;;12.53;9.70;;;;;;;10.01;60.41;101305.36;1756013;80;21014;-54
2022/01/01 08:02:18;;;;;;;9.83;8.23;;;;;;;10.02;60.54;101299.27;1750157;81;21038;-54
2022/01/01 08:04:45;;;;;;;13.85;9.03;;;;;;;10.05;60.54;101301.84;1757609;80;21045;-54
2022/01/01 08:07:12;;;;;;;11.35;9.15;;;;;;;10.07;60.54;101298.36;1759591;80;21479;-54
2022/01/01 08:09:40;;;;;;;11.90;9.05;;;;;;;10.10;60.53;101293.14;1760804;80;21077;-54
2022/01/01 08:12:09;;;;;;;12.10;9.10;;;;;;;10.13;60.51;101293.55;1759582;80;21042;-55
2022/01/01 08:14:35;;;;;;;10.20;8.58;;;;;;;10.16;60.56;101296.97;1757544;80;21006;-54
2022/01/01 08:17:05;;;;;;;11.68;9.25;;;;;;;10.18;60.57;101308.22;1761289;80;20990;-54
2022/01/01 08:19:33;;;;;;;11.70;8.70;;;;;;;10.22;60.67;101312.97;1741076;81;21058;-53
2022/01/01 08:22:02;;;;;;;10.58;8.53;;;;;;;10.25;60.53;101311.18;1753956;81;21027;-54
2022/01/01 08:24:31;;;;;;;11.60;8.88;;;;;;;10.28;60.56;101307.69;1749123;80;21481;-54
2022/01/01 08:26:57;;;;;;;11.90;8.78;;;;;;;10.30;60.50;101301.59;1757559;81;21027;-54
2022/01/01 08:29:24;;;;;;;9.83;8.75;;;;;;;10.34;60.40;101305.02;1754978;80;21045;-54
2022/01/01 08:31:52;;;;;;;9.85;8.80;;;;;;;10.37;60.38;101312.77;1766470;80;21027;-54
2022/01/01 08:34:19;;;;;;;9.50;8.33;;;;;;;10.39;60.28;101305.80;1750496;80;21538;-54
2022/01/01 08:36:46;;;;;;;9.85;8.43;;;;;;;10.42;60.25;101299.27;1755367;80;21045;-54
2022/01/01 08:39:15;;;;;;;9.75;8.20;;;;;;;10.45;60.15;101308.33;1757950;80;21094;-54
2022/01/01 08:41:45;;;;;;;10.48;8.68;;;;;;;10.47;60.18;101310.03;1766146;80;21022;-54
2022/01/01 08:44:12;;;;;;;10.93;8.43;;;;;;;10.50;60.22;101314.34;1763077;80;20996;-54
2022/01/01 08:46:39;;;;;;;8.73;7.60;;;;;;;10.55;60.19;101309.96;1759382;81;21019;-53
2022/01/01 08:49:05;;;;;;;9.45;8.25;;;;;;;10.59;60.11;101311.64;1756681;80;21014;-53
2022/01/01 08:51:34;;;;;;;10.03;8.50;;;;;;;10.61;60.03;101311.18;1758499;80;21531;-53
2022/01/01 08:54:02;;;;;;;8.95;8.00;;;;;;;10.63;59.96;101314.16;1754197;80;21039;-54
2022/01/01 08:56:29;;;;;;;10.15;8.05;;;;;;;10.64;59.92;101309.39;1761466;80;20990;-54
2022/01/01 08:58:56;;;;;;;10.65;7.75;;;;;;;10.65;60.04;101309.80;1764043;80;21014;-54
2022/01/01 09:01:22;;;;;;;9.15;7.60;;;;;;;10.68;60.15;101305.42;1763261;80;21077;-54
2022/01/01 09:03:50;;;;;;;10.68;8.03;;;;;;;10.70;60.22;101305.83;1755851;80;21549;-54
2022/01/01 09:06:16;;;;;;;9.40;8.00;;;;;;;10.72;60.30;101297.56;1755468;81;21535;-53
2022/01/01 09:08:43;;;;;;;9.05;8.08;;;;;;;10.77;60.20;101295.77;1767448;80;21031;-55
2022/01/01 09:11:12;;;;;;;8.03;7.10;;;;;;;10.80;60.17;101300.92;1763442;80;21489;-53
2022/01/01 09:13:42;;;;;;;9.23;7.50;;;;;;;10.84;60.02;101299.99;1750754;80;21002;-53
2022/01/01 09:16:14;;;;;;;10.28;7.67;;;;;;;10.85;59.92;101296.52;1750082;80;21018;-53
2022/01/01 09:18:44;;;;;;;9.03;7.50;;;;;;;10.87;59.81;101293.89;1758854;80;20985;-54
2022/01/01 09:21:11;;;;;;;9.43;7.53;;;;;;;10.89;59.74;101285.18;1756297;80;21049;-54
2022/01/01 09:23:39;;;;;;;9.00;7.55;;;;;;;10.93;59.68;101288.59;1758723;81;21507;-53
2022/01/01 09:26:06;;;;;;;8.90;6.78;;;;;;;10.95;59.64;101286.83;1758669;80;21002;-53
2022/01/01 09:28:34;;;;;;;9.83;8.13;;;;;;;10.97;59.55;101288.53;1768440;80;21007;-54
2022/01/01 09:31:01;;;;;;;8.48;7.25;;;;;;;11.02;59.45;101288.47;1765447;80;21049;-54
2022/01/01 09:33:31;;;;;;;8.28;7.45;;;;;;;11.04;59.40;101286.27;1752595;80;21086;-53
2022/01/01 09:36:02;;;;;;;8.08;7.00;;;;;;;11.08;59.42;101288.38;1759090;80;20975;-54
2022/01/01 09:38:30;;;;;;;8.08;6.95;;;;;;;11.11;59.35;101283.97;1760945;80;21482;-53
2022/01/01 09:40:57;;;;;;;8.48;6.92;;;;;;;11.16;59.19;101276.09;1748220;80;21521;-53
2022/01/01 09:43:24;;;;;;;9.05;6.72;;;;;;;11.17;59.06;101276.05;1754150;80;21509;-54
2022/01/01 09:45:51;;;;;;;8.70;6.75;;;;;;;11.20;59.03;101276.02;1761930;80;21073;-53
2022/01/01 09:48:20;;;;;;;9.05;6.87;;;;;;;11.22;58.95;101269.04;1759790;80;21037;-53
2022/01/01 09:50:54;;;;;;;9.13;7.67;;;;;;;11.26;58.90;101273.31;1756879;80;21506;-53
2022/01/01 09:53:23;;;;;;;10.00;7.78;;;;;;;11.29;58.77;101266.73;1761799;80;21006;-52
2022/01/01 09:55:51;;;;;;;7.12;6.03;;;;;;;11.32;58.51;101266.70;1758412;80;21078;-55
2022/01/01 09:58:23;;;;;;;7.47;6.55;;;;;;;11.33;58.46;101260.59;1762193;80;21015;-53
2022/01/01 10:00:52;;;;;;;8.28;7.20;;;;;;;11.35;58.54;101252.30;1769190;80;21033;-53
2022/01/01 10:03:31;;;;;;;8.40;6.75;;;;;;;11.39;58.63;101255.30;1763895;80;21000;-52
2022/01/01 10:06:05;;;;;;;8.00;6.55;;;;;;;11.44;58.55;101256.06;1759408;80;21537;-53
2022/01/01 10:08:33;;;;;;;7.97;6.17;;;;;;;11.48;58.51;101255.56;1761842;80;21506;-53
2022/01/01 10:11:01;;;;;;;7.92;6.58;;;;;;;11.51;58.49;101260.73;1756298;80;21491;-53
2022/01/01 10:13:39;;;;;;;9.63;7.45;;;;;;;11.54;58.53;101265.04;1756971;80;21085;-54
2022/01/01 10:16:07;;;;;;;8.10;6.75;;;;;;;11.58;58.47;101266.70;1756260;80;21061;-53
2022/01/01 10:18:38;;;;;;;7.22;6.10;;;;;;;11.61;58.38;101255.77;1764171;80;21035;-53
2022/01/01 10:21:10;;;;;;;8.10;6.60;;;;;;;11.64;58.43;101258.77;1732009;80;21075;-53
2022/01/01 10:23:40;;;;;;;7.33;6.40;;;;;;;11.67;58.39;101256.12;1733528;82;21053;-53
2022/01/01 10:28:53;;;;;;;8.00;6.17;;;;;;;11.71;58.32;101259.09;1611015;87;21114;-53
2022/01/01 10:31:21;;;;;;;6.90;6.20;;;;;;;11.74;58.23;101256.01;1591151;87;21110;-53
2022/01/01 10:33:48;;;;;;;8.50;6.55;;;;;;;11.76;58.15;101259.88;1588708;88;21209;-53
2022/01/01 10:36:14;;;;;;;8.38;7.40;;;;;;;11.77;58.16;101252.45;1603110;87;21014;-52
2022/01/01 10:38:41;;;;;;;9.53;6.67;;;;;;;11.77;58.16;101250.72;1598220;88;21053;-53
2022/01/01 10:41:09;;;;;;;7.55;5.90;;;;;;;11.78;58.21;101250.28;1617185;87;21091;-53
2022/01/01 10:43:41;;;;;;;7.67;6.00;;;;;;;11.80;58.27;101247.20;1620735;87;21042;-53
2022/01/01 10:46:15;;;;;;;7.90;6.00;;;;;;;11.80;58.22;101247.20;1594201;87;21678;-52
2022/01/01 10:51:18;;;;;;;7.30;6.35;;;;;;;11.84;58.24;101254.08;1598766;87;22512;-52
2022/01/01 10:53:45;;;;;;;6.35;5.35;;;;;;;11.86;58.28;101247.08;1588687;88;21114;-52
2022/01/01 10:56:19;;;;;;;6.53;5.35;;;;;;;11.86;58.32;101243.17;1591592;87;21070;-52
2022/01/01 10:58:45;;;;;;;5.80;5.20;;;;;;;11.87;58.43;101243.60;1595994;87;21018;-52
2022/01/01 11:01:12;;;;;;;6.72;5.67;;;;;;;11.88;58.53;101233.13;1607122;87;21184;-52
2022/01/01 11:03:42;;;;;;;5.40;4.87;;;;;;;11.90;58.67;101240.92;1603237;87;21120;-53
2022/01/01 11:06:13;;;;;;;5.60;5.05;;;;;;;11.92;58.81;101234.79;1639788;83;21018;-52
2022/01/01 11:08:44;;;;;;;7.08;5.87;;;;;;;11.94;58.81;101235.62;1666160;84;21024;-52
2022/01/01 11:11:10;;;;;;;6.50;5.75;;;;;;;11.96;58.79;101243.41;1676265;83;21002;-52
2022/01/01 11:13:37;;;;;;;7.40;6.17;;;;;;;11.97;58.79;101237.31;1670894;83;21056;-52
2022/01/01 11:16:05;;;;;;;6.58;5.40;;;;;;;11.98;58.73;101245.10;1671124;83;21271;-52
2022/01/01 11:18:34;;;;;;;7.12;6.20;;;;;;;12.00;58.68;101242.45;1676329;83;21506;-53
2022/01/01 11:21:02;;;;;;;7.33;5.70;;;;;;;12.01;58.67;101245.02;1675599;83;21042;-52
2022/01/01 11:23:28;;;;;;;6.83;5.83;;;;;;;12.03;58.57;101239.80;1674582;83;21097;-53
2022/01/01 11:25:55;;;;;;;6.05;5.30;;;;;;;12.07;58.49;101241.45;1744814;80;21522;-52
2022/01/01 11:28:22;;;;;;;8.38;5.47;;;;;;;12.09;58.41;101242.28;1748945;80;21027;-52
2022/01/01 11:31:09;;;;;;;6.78;5.42;;;;;;;12.12;58.31;101236.98;1758530;80;20992;-52